sensor_id;sensor_type;location;lat;lon;timestamp;pressure;altitude;pressure_sealevel;temperature;humidity
67740;BME280;54536;50.090;14.420;2023-04-15T00:00:42;98022.41;;;10.89;70.44
67740;BME280;54536;50.090;14.420;2023-04-15T00:03:15;98031.59;;;10.93;70.06
67740;BME280;54536;50.090;14.420;2023-04-15T00:05:44;98028.09;;;11.01;69.97
67740;BME280;54536;50.090;14.420;2023-04-15T00:08:10;98024.53;;;10.94;70.56
67740;BME280;54536;50.090;14.420;2023-04-15T00:10:36;98027.75;;;11.04;69.14
67740;BME280;54536;50.090;14.420;2023-04-15T00:13:01;98023.50;;;11.03;69.65
67740;BME280;54536;50.090;14.420;2023-04-15T00:15:29;98016.09;;;10.98;70.20
67740;BME280;54536;50.090;14.420;2023-04-15T00:17:55;98012.25;;;10.86;69.33
67740;BME280;54536;50.090;14.420;2023-04-15T00:20:21;98017.78;;;10.91;69.82
67740;BME280;54536;50.090;14.420;2023-04-15T00:22:47;98008.09;;;10.92;69.50
67740;BME280;54536;50.090;14.420;2023-04-15T00:25:13;98013.56;;;10.82;70.04
67740;BME280;54536;50.090;14.420;2023-04-15T00:27:39;98020.81;;;10.80;70.00
67740;BME280;54536;50.090;14.420;2023-04-15T00:30:06;98013.22;;;10.85;70.33
67740;BME280;54536;50.090;14.420;2023-04-15T00:32:32;98008.63;;;10.87;69.33
67740;BME280;54536;50.090;14.420;2023-04-15T00:34:59;98010.91;;;10.90;69.13
67740;BME280;54536;50.090;14.420;2023-04-15T00:37:24;98005.31;;;10.85;69.55
67740;BME280;54536;50.090;14.420;2023-04-15T00:39:51;97997.16;;;10.80;70.07
67740;BME280;54536;50.090;14.420;2023-04-15T00:42:18;97996.50;;;10.78;69.36
67740;BME280;54536;50.090;14.420;2023-04-15T00:44:44;97992.91;;;10.79;69.34
67740;BME280;54536;50.090;14.420;2023-04-15T00:47:11;97989.75;;;10.75;70.11
67740;BME280;54536;50.090;14.420;2023-04-15T00:49:37;97986.38;;;10.67;69.52
67740;BME280;54536;50.090;14.420;2023-04-15T00:52:03;97982.88;;;10.74;69.54
67740;BME280;54536;50.090;14.420;2023-04-15T00:54:29;97989.25;;;10.80;68.68
67740;BME280;54536;50.090;14.420;2023-04-15T00:56:55;97979.03;;;10.85;69.02
67740;BME280;54536;50.090;14.420;2023-04-15T00:59:23;97991.06;;;10.80;69.77
67740;BME280;54536;50.090;14.420;2023-04-15T01:01:49;97979.75;;;10.79;69.83
67740;BME280;54536;50.090;14.420;2023-04-15T01:04:16;97982.94;;;10.66;69.60
67740;BME280;54536;50.090;14.420;2023-04-15T01:06:42;97980.59;;;10.71;69.61
67740;BME280;54536;50.090;14.420;2023-04-15T01:09:09;97989.28;;;10.72;69.57
67740;BME280;54536;50.090;14.420;2023-04-15T01:11:35;97992.38;;;10.84;69.37
67740;BME280;54536;50.090;14.420;2023-04-15T01:14:02;97990.16;;;10.64;69.84
67740;BME280;54536;50.090;14.420;2023-04-15T01:16:28;97984.28;;;10.85;69.22
67740;BME280;54536;50.090;14.420;2023-04-15T01:18:54;97988.72;;;10.85;68.72
67740;BME280;54536;50.090;14.420;2023-04-15T01:21:21;97968.81;;;10.90;69.23
67740;BME280;54536;50.090;14.420;2023-04-15T01:23:49;97976.75;;;10.82;69.65
67740;BME280;54536;50.090;14.420;2023-04-15T01:26:16;97972.97;;;10.85;69.34
67740;BME280;54536;50.090;14.420;2023-04-15T01:28:42;97972.81;;;10.78;68.51
67740;BME280;54536;50.090;14.420;2023-04-15T01:31:10;97975.03;;;10.66;69.77
67740;BME280;54536;50.090;14.420;2023-04-15T01:33:38;97976.81;;;10.66;69.01
67740;BME280;54536;50.090;14.420;2023-04-15T01:36:05;97984.72;;;10.66;69.35
67740;BME280;54536;50.090;14.420;2023-04-15T01:38:33;97978.28;;;10.76;68.93
67740;BME280;54536;50.090;14.420;2023-04-15T01:40:59;97982.06;;;10.74;69.09
67740;BME280;54536;50.090;14.420;2023-04-15T01:43:26;97990.94;;;10.73;68.94
67740;BME280;54536;50.090;14.420;2023-04-15T01:45:53;97997.03;;;10.65;69.86
67740;BME280;54536;50.090;14.420;2023-04-15T01:48:19;98003.91;;;10.74;70.02
67740;BME280;54536;50.090;14.420;2023-04-15T01:50:45;98007.66;;;10.80;69.74
67740;BME280;54536;50.090;14.420;2023-04-15T01:53:11;98013.28;;;10.77;70.41
67740;BME280;54536;50.090;14.420;2023-04-15T01:55:37;98012.59;;;10.75;69.43
67740;BME280;54536;50.090;14.420;2023-04-15T01:58:03;98014.56;;;10.81;69.63
67740;BME280;54536;50.090;14.420;2023-04-15T02:00:29;98012.25;;;10.86;69.18
67740;BME280;54536;50.090;14.420;2023-04-15T02:02:57;98014.06;;;10.86;68.88
67740;BME280;54536;50.090;14.420;2023-04-15T02:05:24;98016.31;;;10.89;69.26
67740;BME280;54536;50.090;14.420;2023-04-15T02:07:50;98015.34;;;10.90;69.03
67740;BME280;54536;50.090;14.420;2023-04-15T02:10:16;98019.47;;;10.84;69.64
67740;BME280;54536;50.090;14.420;2023-04-15T02:12:43;98020.75;;;10.88;69.40
67740;BME280;54536;50.090;14.420;2023-04-15T02:15:09;98024.72;;;10.84;68.93
67740;BME280;54536;50.090;14.420;2023-04-15T02:17:36;98019.31;;;10.86;69.96
67740;BME280;54536;50.090;14.420;2023-04-15T02:20:03;98020.47;;;10.83;68.93
67740;BME280;54536;50.090;14.420;2023-04-15T02:22:34;98016.84;;;10.84;69.42
67740;BME280;54536;50.090;14.420;2023-04-15T02:25:00;98010.94;;;10.82;69.37
67740;BME280;54536;50.090;14.420;2023-04-15T02:27:26;98014.34;;;10.91;68.37
67740;BME280;54536;50.090;14.420;2023-04-15T02:29:53;98009.44;;;10.88;68.89
67740;BME280;54536;50.090;14.420;2023-04-15T02:32:19;98010.44;;;10.78;69.12
67740;BME280;54536;50.090;14.420;2023-04-15T02:34:47;98012.41;;;10.85;68.42
67740;BME280;54536;50.090;14.420;2023-04-15T02:37:13;98015.69;;;10.87;68.25
67740;BME280;54536;50.090;14.420;2023-04-15T02:39:39;98012.13;;;10.80;68.91
67740;BME280;54536;50.090;14.420;2023-04-15T02:42:05;98011.72;;;10.91;68.86
67740;BME280;54536;50.090;14.420;2023-04-15T02:44:32;98010.03;;;10.98;67.95
67740;BME280;54536;50.090;14.420;2023-04-15T02:46:59;98010.38;;;10.95;68.65
67740;BME280;54536;50.090;14.420;2023-04-15T02:49:25;98005.50;;;10.84;68.80
67740;BME280;54536;50.090;14.420;2023-04-15T02:51:51;98014.81;;;10.94;68.69
67740;BME280;54536;50.090;14.420;2023-04-15T02:54:20;98018.66;;;10.84;68.58
67740;BME280;54536;50.090;14.420;2023-04-15T02:56:48;98013.19;;;10.93;68.28
67740;BME280;54536;50.090;14.420;2023-04-15T02:59:15;98021.06;;;10.93;68.56
67740;BME280;54536;50.090;14.420;2023-04-15T03:01:41;98022.44;;;10.81;69.70
67740;BME280;54536;50.090;14.420;2023-04-15T03:04:08;98025.41;;;10.86;69.10
67740;BME280;54536;50.090;14.420;2023-04-15T03:06:34;98020.16;;;10.78;68.54
67740;BME280;54536;50.090;14.420;2023-04-15T03:09:01;98017.97;;;10.90;68.43
67740;BME280;54536;50.090;14.420;2023-04-15T03:11:28;98012.94;;;10.80;68.23
67740;BME280;54536;50.090;14.420;2023-04-15T03:13:54;98012.88;;;10.88;68.82
67740;BME280;54536;50.090;14.420;2023-04-15T03:16:20;98011.22;;;10.95;68.48
67740;BME280;54536;50.090;14.420;2023-04-15T03:18:47;98012.03;;;10.96;68.08
67740;BME280;54536;50.090;14.420;2023-04-15T03:21:13;98015.59;;;11.03;67.87
67740;BME280;54536;50.090;14.420;2023-04-15T03:23:39;98008.75;;;10.94;68.39
67740;BME280;54536;50.090;14.420;2023-04-15T03:26:05;98008.28;;;10.90;68.39
67740;BME280;54536;50.090;14.420;2023-04-15T03:28:31;98015.63;;;10.95;68.67
67740;BME280;54536;50.090;14.420;2023-04-15T03:30:58;98019.78;;;10.89;68.75
67740;BME280;54536;50.090;14.420;2023-04-15T03:33:24;98017.78;;;10.91;68.27
67740;BME280;54536;50.090;14.420;2023-04-15T03:35:51;98020.06;;;10.94;68.51
67740;BME280;54536;50.090;14.420;2023-04-15T03:38:17;98013.47;;;10.98;68.60
67740;BME280;54536;50.090;14.420;2023-04-15T03:40:45;98020.25;;;10.93;68.98
67740;BME280;54536;50.090;14.420;2023-04-15T03:43:11;98024.66;;;11.00;68.71
67740;BME280;54536;50.090;14.420;2023-04-15T03:45:37;98023.03;;;10.99;68.78
67740;BME280;54536;50.090;14.420;2023-04-15T03:48:03;98033.31;;;11.09;68.66
67740;BME280;54536;50.090;14.420;2023-04-15T03:50:30;98023.84;;;11.00;68.97
67740;BME280;54536;50.090;14.420;2023-04-15T03:52:56;98030.72;;;11.01;68.78
67740;BME280;54536;50.090;14.420;2023-04-15T03:55:22;98030.72;;;11.01;69.58
67740;BME280;54536;50.090;14.420;2023-04-15T03:57:48;98029.44;;;10.97;68.99
67740;BME280;54536;50.090;14.420;2023-04-15T04:00:14;98032.00;;;11.05;69.11
67740;BME280;54536;50.090;14.420;2023-04-15T04:02:40;98030.91;;;10.99;69.02
67740;BME280;54536;50.090;14.420;2023-04-15T04:05:06;98041.59;;;10.98;69.61
67740;BME280;54536;50.090;14.420;2023-04-15T04:07:32;98042.53;;;11.05;69.31
67740;BME280;54536;50.090;14.420;2023-04-15T04:09:59;98046.47;;;11.09;69.64
67740;BME280;54536;50.090;14.420;2023-04-15T04:12:24;98061.66;;;10.99;70.54
67740;BME280;54536;50.090;14.420;2023-04-15T04:14:51;98076.31;;;10.85;66.25
67740;BME280;54536;50.090;14.420;2023-04-15T04:17:17;98084.13;;;10.70;65.33
67740;BME280;54536;50.090;14.420;2023-04-15T04:19:43;98097.75;;;10.66;65.37
67740;BME280;54536;50.090;14.420;2023-04-15T04:22:09;98098.13;;;10.63;63.60
67740;BME280;54536;50.090;14.420;2023-04-15T04:24:35;98103.06;;;10.41;62.68
67740;BME280;54536;50.090;14.420;2023-04-15T04:27:01;98112.63;;;10.34;62.62
67740;BME280;54536;50.090;14.420;2023-04-15T04:29:27;98113.44;;;10.35;62.32
67740;BME280;54536;50.090;14.420;2023-04-15T04:31:53;98116.72;;;10.20;62.25
67740;BME280;54536;50.090;14.420;2023-04-15T04:34:20;98120.50;;;10.34;61.87
67740;BME280;54536;50.090;14.420;2023-04-15T04:36:46;98124.75;;;10.19;61.57
67740;BME280;54536;50.090;14.420;2023-04-15T04:39:12;98128.03;;;10.29;61.38
67740;BME280;54536;50.090;14.420;2023-04-15T04:41:38;98133.94;;;10.23;60.32
67740;BME280;54536;50.090;14.420;2023-04-15T04:44:04;98135.41;;;10.09;61.27
67740;BME280;54536;50.090;14.420;2023-04-15T04:46:30;98146.44;;;10.29;60.47
67740;BME280;54536;50.090;14.420;2023-04-15T04:48:56;98148.56;;;10.17;61.33
67740;BME280;54536;50.090;14.420;2023-04-15T04:51:22;98146.09;;;10.16;62.60
67740;BME280;54536;50.090;14.420;2023-04-15T04:53:49;98149.88;;;10.05;62.58
67740;BME280;54536;50.090;14.420;2023-04-15T04:56:15;98146.28;;;10.30;62.73
67740;BME280;54536;50.090;14.420;2023-04-15T04:58:41;98151.50;;;10.22;61.47
67740;BME280;54536;50.090;14.420;2023-04-15T05:01:07;98156.47;;;10.34;60.85
67740;BME280;54536;50.090;14.420;2023-04-15T05:03:34;98157.59;;;10.15;60.92
67740;BME280;54536;50.090;14.420;2023-04-15T05:06:00;98163.66;;;10.15;61.37
67740;BME280;54536;50.090;14.420;2023-04-15T05:08:27;98167.78;;;10.34;60.82
67740;BME280;54536;50.090;14.420;2023-04-15T05:10:53;98171.72;;;10.38;61.47
67740;BME280;54536;50.090;14.420;2023-04-15T05:13:19;98166.81;;;10.35;61.48
67740;BME280;54536;50.090;14.420;2023-04-15T05:15:46;98166.50;;;10.30;60.95
67740;BME280;54536;50.090;14.420;2023-04-15T05:18:12;98171.22;;;10.26;61.11
67740;BME280;54536;50.090;14.420;2023-04-15T05:20:38;98175.47;;;10.19;60.06
67740;BME280;54536;50.090;14.420;2023-04-15T05:23:05;98175.81;;;10.24;60.10
67740;BME280;54536;50.090;14.420;2023-04-15T05:25:31;98180.56;;;10.21;60.67
67740;BME280;54536;50.090;14.420;2023-04-15T05:27:57;98185.84;;;10.21;61.13
67740;BME280;54536;50.090;14.420;2023-04-15T05:30:23;98184.66;;;10.23;60.44
67740;BME280;54536;50.090;14.420;2023-04-15T05:32:50;98193.06;;;10.35;60.04
67740;BME280;54536;50.090;14.420;2023-04-15T05:35:16;98188.31;;;10.39;60.54
67740;BME280;54536;50.090;14.420;2023-04-15T05:37:42;98193.56;;;10.39;60.29
67740;BME280;54536;50.090;14.420;2023-04-15T05:40:08;98199.31;;;10.34;60.20
67740;BME280;54536;50.090;14.420;2023-04-15T05:42:36;98194.41;;;10.31;61.09
67740;BME280;54536;50.090;14.420;2023-04-15T05:45:14;98203.72;;;10.17;61.16
67740;BME280;54536;50.090;14.420;2023-04-15T05:47:40;98212.25;;;10.11;62.37
67740;BME280;54536;50.090;14.420;2023-04-15T05:50:07;98213.91;;;10.20;61.44
67740;BME280;54536;50.090;14.420;2023-04-15T05:52:33;98212.75;;;10.23;61.45
67740;BME280;54536;50.090;14.420;2023-04-15T05:54:59;98216.03;;;10.25;60.87
67740;BME280;54536;50.090;14.420;2023-04-15T05:57:25;98215.75;;;10.28;60.84
67740;BME280;54536;50.090;14.420;2023-04-15T05:59:51;98211.97;;;10.39;60.80
67740;BME280;54536;50.090;14.420;2023-04-15T06:02:18;98217.38;;;10.45;60.27
67740;BME280;54536;50.090;14.420;2023-04-15T06:04:45;98225.91;;;10.39;60.10
67740;BME280;54536;50.090;14.420;2023-04-15T06:07:14;98229.22;;;10.41;59.52
67740;BME280;54536;50.090;14.420;2023-04-15T06:09:41;98227.72;;;10.55;59.48
67740;BME280;54536;50.090;14.420;2023-04-15T06:12:07;98225.28;;;10.53;59.41
67740;BME280;54536;50.090;14.420;2023-04-15T06:14:37;98227.91;;;10.45;59.28
67740;BME280;54536;50.090;14.420;2023-04-15T06:17:04;98237.75;;;10.35;58.91
67740;BME280;54536;50.090;14.420;2023-04-15T06:19:30;98236.28;;;10.41;58.87
67740;BME280;54536;50.090;14.420;2023-04-15T06:21:57;98237.06;;;10.33;58.78
67740;BME280;54536;50.090;14.420;2023-04-15T06:24:23;98245.16;;;10.48;57.63
67740;BME280;54536;50.090;14.420;2023-04-15T06:26:49;98248.59;;;10.48;57.52
67740;BME280;54536;50.090;14.420;2023-04-15T06:29:15;98246.28;;;10.45;58.07
67740;BME280;54536;50.090;14.420;2023-04-15T06:31:41;98247.63;;;10.58;57.19
67740;BME280;54536;50.090;14.420;2023-04-15T06:34:07;98245.31;;;10.71;55.72
67740;BME280;54536;50.090;14.420;2023-04-15T06:36:34;98242.34;;;10.66;55.96
67740;BME280;54536;50.090;14.420;2023-04-15T06:39:00;98244.66;;;10.77;56.18
67740;BME280;54536;50.090;14.420;2023-04-15T06:41:26;98247.44;;;10.84;55.75
67740;BME280;54536;50.090;14.420;2023-04-15T06:43:52;98247.13;;;10.70;56.37
67740;BME280;54536;50.090;14.420;2023-04-15T06:46:18;98243.16;;;10.99;55.43
67740;BME280;54536;50.090;14.420;2023-04-15T06:48:44;98246.59;;;10.99;55.17
67740;BME280;54536;50.090;14.420;2023-04-15T06:51:10;98249.88;;;10.93;55.83
67740;BME280;54536;50.090;14.420;2023-04-15T06:53:37;98252.19;;;10.96;56.26
67740;BME280;54536;50.090;14.420;2023-04-15T06:56:07;98253.81;;;10.97;54.50
67740;BME280;54536;50.090;14.420;2023-04-15T06:58:34;98266.50;;;11.02;54.23
67740;BME280;54536;50.090;14.420;2023-04-15T07:01:01;98268.13;;;11.03;54.06
67740;BME280;54536;50.090;14.420;2023-04-15T07:03:26;98267.31;;;10.94;54.98
67740;BME280;54536;50.090;14.420;2023-04-15T07:05:53;98268.63;;;10.90;54.44
67740;BME280;54536;50.090;14.420;2023-04-15T07:08:19;98266.63;;;11.00;53.53
67740;BME280;54536;50.090;14.420;2023-04-15T07:10:46;98255.44;;;11.07;53.98
67740;BME280;54536;50.090;14.420;2023-04-15T07:13:12;98264.31;;;11.22;53.39
67740;BME280;54536;50.090;14.420;2023-04-15T07:15:38;98276.56;;;11.46;52.49
67740;BME280;54536;50.090;14.420;2023-04-15T07:18:04;98275.75;;;11.37;51.33
67740;BME280;54536;50.090;14.420;2023-04-15T07:20:31;98290.44;;;11.23;50.17
67740;BME280;54536;50.090;14.420;2023-04-15T07:22:57;98290.94;;;11.27;51.07
67740;BME280;54536;50.090;14.420;2023-04-15T07:25:24;98282.53;;;11.32;50.21
67740;BME280;54536;50.090;14.420;2023-04-15T07:27:51;98285.84;;;11.17;49.68
67740;BME280;54536;50.090;14.420;2023-04-15T07:30:17;98291.56;;;11.45;50.46
67740;BME280;54536;50.090;14.420;2023-04-15T07:32:43;98301.13;;;11.38;49.27
67740;BME280;54536;50.090;14.420;2023-04-15T07:35:10;98301.75;;;11.40;49.25
67740;BME280;54536;50.090;14.420;2023-04-15T07:37:36;98293.38;;;11.37;49.39
67740;BME280;54536;50.090;14.420;2023-04-15T07:40:03;98302.56;;;11.49;49.63
67740;BME280;54536;50.090;14.420;2023-04-15T07:42:32;98303.38;;;11.49;49.06
67740;BME280;54536;50.090;14.420;2023-04-15T07:44:59;98306.81;;;11.50;49.85
67740;BME280;54536;50.090;14.420;2023-04-15T07:47:25;98308.69;;;11.41;49.07
67740;BME280;54536;50.090;14.420;2023-04-15T07:49:52;98303.75;;;11.38;49.21
67740;BME280;54536;50.090;14.420;2023-04-15T07:52:18;98305.22;;;11.33;49.18
67740;BME280;54536;50.090;14.420;2023-04-15T07:54:44;98310.66;;;11.39;51.17
67740;BME280;54536;50.090;14.420;2023-04-15T07:57:10;98305.91;;;11.35;50.16
67740;BME280;54536;50.090;14.420;2023-04-15T07:59:36;98314.47;;;11.29;49.54
67740;BME280;54536;50.090;14.420;2023-04-15T08:02:02;98312.75;;;11.44;49.50
67740;BME280;54536;50.090;14.420;2023-04-15T08:04:29;98310.59;;;11.47;49.33
67740;BME280;54536;50.090;14.420;2023-04-15T08:06:55;98310.47;;;11.41;48.94
67740;BME280;54536;50.090;14.420;2023-04-15T08:09:23;98313.22;;;11.56;48.66
67740;BME280;54536;50.090;14.420;2023-04-15T08:11:48;98324.25;;;11.67;48.08
67740;BME280;54536;50.090;14.420;2023-04-15T08:14:16;98325.38;;;11.65;47.29
67740;BME280;54536;50.090;14.420;2023-04-15T08:16:42;98334.63;;;11.53;47.91
67740;BME280;54536;50.090;14.420;2023-04-15T08:19:08;98331.63;;;11.64;48.10
67740;BME280;54536;50.090;14.420;2023-04-15T08:21:35;98335.25;;;11.63;48.61
67740;BME280;54536;50.090;14.420;2023-04-15T08:24:01;98337.44;;;11.51;48.02
67740;BME280;54536;50.090;14.420;2023-04-15T08:26:28;98334.78;;;11.67;47.66
67740;BME280;54536;50.090;14.420;2023-04-15T08:28:54;98338.56;;;11.65;47.17
67740;BME280;54536;50.090;14.420;2023-04-15T08:31:20;98345.44;;;11.74;46.77
67740;BME280;54536;50.090;14.420;2023-04-15T08:33:47;98339.84;;;11.69;46.52
67740;BME280;54536;50.090;14.420;2023-04-15T08:36:13;98341.34;;;11.63;47.50
67740;BME280;54536;50.090;14.420;2023-04-15T08:38:39;98347.59;;;11.62;47.78
67740;BME280;54536;50.090;14.420;2023-04-15T08:41:17;98358.28;;;11.69;46.59
67740;BME280;54536;50.090;14.420;2023-04-15T08:46:19;98359.09;;;11.78;46.67
67740;BME280;54536;50.090;14.420;2023-04-15T08:48:47;98364.66;;;11.83;47.64
67740;BME280;54536;50.090;14.420;2023-04-15T08:51:15;98359.69;;;11.96;47.83
67740;BME280;54536;50.090;14.420;2023-04-15T08:53:43;98364.16;;;11.95;46.84
67740;BME280;54536;50.090;14.420;2023-04-15T08:56:13;98360.69;;;11.95;46.65
67740;BME280;54536;50.090;14.420;2023-04-15T08:58:40;98366.16;;;11.93;46.38
67740;BME280;54536;50.090;14.420;2023-04-15T09:01:07;98365.97;;;11.87;45.91
67740;BME280;54536;50.090;14.420;2023-04-15T09:03:34;98365.50;;;11.91;46.14
67740;BME280;54536;50.090;14.420;2023-04-15T09:06:03;98363.19;;;11.88;45.73
67740;BME280;54536;50.090;14.420;2023-04-15T09:08:30;98373.34;;;12.08;46.20
67740;BME280;54536;50.090;14.420;2023-04-15T09:10:56;98369.22;;;12.13;45.60
67740;BME280;54536;50.090;14.420;2023-04-15T09:13:22;98373.75;;;12.19;46.11
67740;BME280;54536;50.090;14.420;2023-04-15T09:15:48;98369.63;;;12.25;44.92
67740;BME280;54536;50.090;14.420;2023-04-15T09:18:30;98378.13;;;12.35;44.82
67740;BME280;54536;50.090;14.420;2023-04-15T09:21:09;98375.78;;;12.17;45.26
67740;BME280;54536;50.090;14.420;2023-04-15T09:23:52;98365.97;;;12.34;45.25
67740;BME280;54536;50.090;14.420;2023-04-15T09:26:19;98372.31;;;12.17;45.89
67740;BME280;54536;50.090;14.420;2023-04-15T09:29:04;98374.16;;;12.08;46.13
67740;BME280;54536;50.090;14.420;2023-04-15T09:31:31;98377.13;;;12.05;46.62
67740;BME280;54536;50.090;14.420;2023-04-15T09:33:58;98384.00;;;12.14;47.29
67740;BME280;54536;50.090;14.420;2023-04-15T09:36:24;98390.91;;;12.15;48.32
67740;BME280;54536;50.090;14.420;2023-04-15T09:38:58;98394.38;;;12.16;49.01
67740;BME280;54536;50.090;14.420;2023-04-15T09:41:26;98397.16;;;12.23;48.93
67740;BME280;54536;50.090;14.420;2023-04-15T09:43:53;98399.00;;;12.14;48.87
67740;BME280;54536;50.090;14.420;2023-04-15T09:46:19;98405.25;;;12.13;48.71
67740;BME280;54536;50.090;14.420;2023-04-15T09:48:46;98404.44;;;12.12;49.04
67740;BME280;54536;50.090;14.420;2023-04-15T09:51:12;98404.97;;;12.00;49.00
67740;BME280;54536;50.090;14.420;2023-04-15T09:53:38;98408.56;;;12.15;48.83
67740;BME280;54536;50.090;14.420;2023-04-15T09:56:04;98399.16;;;12.21;48.30
67740;BME280;54536;50.090;14.420;2023-04-15T09:58:34;98402.75;;;12.19;49.22
67740;BME280;54536;50.090;14.420;2023-04-15T10:01:03;98400.09;;;12.28;48.94
67740;BME280;54536;50.090;14.420;2023-04-15T10:03:33;98406.50;;;12.33;47.99
67740;BME280;54536;50.090;14.420;2023-04-15T10:06:02;98407.72;;;12.14;48.53
67740;BME280;54536;50.090;14.420;2023-04-15T10:08:32;98414.97;;;12.21;48.38
67740;BME280;54536;50.090;14.420;2023-04-15T10:11:01;98413.28;;;12.28;48.08
67740;BME280;54536;50.090;14.420;2023-04-15T10:13:29;98418.47;;;12.44;48.10
67740;BME280;54536;50.090;14.420;2023-04-15T10:16:01;98412.53;;;12.50;47.31
67740;BME280;54536;50.090;14.420;2023-04-15T10:18:34;98404.09;;;12.15;47.52
67740;BME280;54536;50.090;14.420;2023-04-15T10:21:01;98408.31;;;12.33;47.73
67740;BME280;54536;50.090;14.420;2023-04-15T10:23:27;98404.03;;;12.32;48.43
67740;BME280;54536;50.090;14.420;2023-04-15T10:25:53;98406.78;;;12.38;48.12
67740;BME280;54536;50.090;14.420;2023-04-15T10:28:20;98411.72;;;12.41;46.75
67740;BME280;54536;50.090;14.420;2023-04-15T10:30:50;98417.78;;;12.50;46.63
67740;BME280;54536;50.090;14.420;2023-04-15T10:33:22;98426.13;;;12.62;48.22
67740;BME280;54536;50.090;14.420;2023-04-15T10:35:50;98418.25;;;12.54;46.95
67740;BME280;54536;50.090;14.420;2023-04-15T10:38:39;98420.63;;;12.72;46.37
67740;BME280;54536;50.090;14.420;2023-04-15T10:41:18;98431.38;;;12.70;45.03
67740;BME280;54536;50.090;14.420;2023-04-15T10:43:48;98431.28;;;12.86;44.88
67740;BME280;54536;50.090;14.420;2023-04-15T10:46:24;98429.75;;;12.61;45.48
67740;BME280;54536;50.090;14.420;2023-04-15T10:49:12;98438.75;;;12.75;45.86
67740;BME280;54536;50.090;14.420;2023-04-15T10:51:50;98439.31;;;12.62;47.05
67740;BME280;54536;50.090;14.420;2023-04-15T10:54:31;98446.63;;;12.52;47.59
67740;BME280;54536;50.090;14.420;2023-04-15T10:59:30;98437.19;;;12.65;46.78
67740;BME280;54536;50.090;14.420;2023-04-15T11:02:00;98456.00;;;12.54;47.02
67740;BME280;54536;50.090;14.420;2023-04-15T11:04:57;98460.38;;;12.70;47.26
67740;BME280;54536;50.090;14.420;2023-04-15T11:12:46;98466.91;;;12.82;46.67
67740;BME280;54536;50.090;14.420;2023-04-15T11:15:35;98463.28;;;12.83;46.53
67740;BME280;54536;50.090;14.420;2023-04-15T11:18:41;98467.53;;;12.84;46.21
67740;BME280;54536;50.090;14.420;2023-04-15T11:21:03;98474.63;;;12.92;46.10
67740;BME280;54536;50.090;14.420;2023-04-15T11:23:42;98468.38;;;12.54;46.78
67740;BME280;54536;50.090;14.420;2023-04-15T11:26:12;98472.75;;;12.70;47.05
67740;BME280;54536;50.090;14.420;2023-04-15T11:28:40;98468.38;;;12.85;47.07
67740;BME280;54536;50.090;14.420;2023-04-15T11:31:12;98470.19;;;12.84;46.39
67740;BME280;54536;50.090;14.420;2023-04-15T11:34:04;98465.88;;;12.92;46.16
67740;BME280;54536;50.090;14.420;2023-04-15T11:36:31;98476.38;;;12.69;46.64
67740;BME280;54536;50.090;14.420;2023-04-15T11:38:58;98479.56;;;12.87;47.56
67740;BME280;54536;50.090;14.420;2023-04-15T11:41:24;98482.22;;;12.87;47.87
67740;BME280;54536;50.090;14.420;2023-04-15T11:43:51;98488.06;;;12.74;47.00
67740;BME280;54536;50.090;14.420;2023-04-15T11:46:18;98482.81;;;12.97;46.79
67740;BME280;54536;50.090;14.420;2023-04-15T11:48:45;98489.56;;;13.00;46.40
67740;BME280;54536;50.090;14.420;2023-04-15T11:51:13;98481.34;;;12.95;46.56
67740;BME280;54536;50.090;14.420;2023-04-15T11:53:43;98489.66;;;12.83;46.13
67740;BME280;54536;50.090;14.420;2023-04-15T11:58:42;98496.09;;;13.12;47.20
67740;BME280;54536;50.090;14.420;2023-04-15T12:01:09;98493.69;;;13.02;46.54
67740;BME280;54536;50.090;14.420;2023-04-15T12:03:41;98486.13;;;12.91;46.84
67740;BME280;54536;50.090;14.420;2023-04-15T12:09:13;98495.75;;;13.15;47.06
67740;BME280;54536;50.090;14.420;2023-04-15T12:16:44;98494.09;;;13.14;47.02
67740;BME280;54536;50.090;14.420;2023-04-15T12:19:17;98490.84;;;13.04;46.96
67740;BME280;54536;50.090;14.420;2023-04-15T12:21:46;98495.50;;;13.02;47.11
67740;BME280;54536;50.090;14.420;2023-04-15T12:24:13;98506.63;;;12.89;47.13
67740;BME280;54536;50.090;14.420;2023-04-15T12:26:54;98504.22;;;12.71;47.44
67740;BME280;54536;50.090;14.420;2023-04-15T12:29:27;98508.00;;;12.77;47.55
67740;BME280;54536;50.090;14.420;2023-04-15T12:32:03;98508.13;;;12.83;48.24
67740;BME280;54536;50.090;14.420;2023-04-15T12:34:35;98515.63;;;12.95;47.44
67740;BME280;54536;50.090;14.420;2023-04-15T12:37:04;98520.91;;;12.95;48.12
67740;BME280;54536;50.090;14.420;2023-04-15T12:39:38;98525.69;;;12.99;47.85
67740;BME280;54536;50.090;14.420;2023-04-15T12:42:05;98522.84;;;13.09;47.86
67740;BME280;54536;50.090;14.420;2023-04-15T12:44:32;98526.66;;;13.06;47.67
67740;BME280;54536;50.090;14.420;2023-04-15T12:46:59;98523.28;;;12.89;49.49
67740;BME280;54536;50.090;14.420;2023-04-15T12:49:26;98530.66;;;12.94;48.29
67740;BME280;54536;50.090;14.420;2023-04-15T12:51:54;98522.94;;;12.93;48.83
67740;BME280;54536;50.090;14.420;2023-04-15T12:54:21;98530.50;;;12.96;48.68
67740;BME280;54536;50.090;14.420;2023-04-15T12:56:49;98529.69;;;12.95;48.60
67740;BME280;54536;50.090;14.420;2023-04-15T12:59:16;98532.19;;;12.88;48.36
67740;BME280;54536;50.090;14.420;2023-04-15T13:01:44;98536.53;;;13.04;48.56
67740;BME280;54536;50.090;14.420;2023-04-15T13:04:10;98548.53;;;13.15;48.58
67740;BME280;54536;50.090;14.420;2023-04-15T13:06:36;98548.69;;;13.13;48.02
67740;BME280;54536;50.090;14.420;2023-04-15T13:09:03;98551.66;;;13.19;48.21
67740;BME280;54536;50.090;14.420;2023-04-15T13:11:31;98549.53;;;13.14;47.65
67740;BME280;54536;50.090;14.420;2023-04-15T13:14:06;98556.28;;;13.25;47.95